Time;durP1;ratioP1;P1;durP2;ratioP2;P2;SDS_P1;SDS_P2;PMS_P1;PMS_P2;Temp;Humidity;BMP_temperature;BMP_pressure;BME280_temperature;BME280_humidity;BME280_pressure;Samples;Min_cycle;Max_cycle;Signal;HPM_P1;HPM_P2
2021/04/27 00:01:52;;;;;;;1.45;0.60;;;;;;;12.53;54.50;100981.50;5032677;28;20049;-46
2021/04/27 00:04:18;;;;;;;2.08;0.75;;;;;;;12.48;54.23;100965.09;5032414;28;20045;-46
2021/04/27 00:06:45;;;;;;;2.55;0.82;;;;;;;12.43;53.95;100973.69;5032496;28;20087;-48
2021/04/27 00:09:11;;;;;;;5.45;0.90;;;;;;;12.39;53.95;100983.06;5032458;28;20060;-47
2021/04/27 00:11:38;;;;;;;3.13;0.80;;;;;;;12.26;53.86;100984.25;5032648;28;20087;-46
2021/04/27 00:14:06;;;;;;;2.22;0.40;;;;;;;12.22;53.60;100984.16;5032230;28;20045;-47
2021/04/27 00:16:32;;;;;;;6.13;1.05;;;;;;;12.29;53.26;100984.34;5031575;28;20558;-49
2021/04/27 00:18:59;;;;;;;0.98;0.95;;;;;;;12.27;53.26;100975.56;5031834;28;20038;-51
2021/04/27 00:21:26;;;;;;;3.22;0.63;;;;;;;12.25;53.45;100989.00;5032154;28;20513;-46
2021/04/27 00:23:53;;;;;;;2.47;0.80;;;;;;;12.25;53.61;100983.44;5031728;28;20049;-51
2021/04/27 00:26:19;;;;;;;4.03;1.05;;;;;;;12.23;53.82;100984.97;5031012;28;20549;-49
2021/04/27 00:28:46;;;;;;;5.28;0.95;;;;;;;12.17;53.94;100981.63;5032165;28;20517;-48
2021/04/27 00:31:12;;;;;;;1.38;0.73;;;;;;;12.18;54.25;100972.13;5038092;28;20079;-46
2021/04/27 00:33:38;;;;;;;3.85;0.85;;;;;;;12.17;54.26;100967.75;5039868;28;20041;-46
2021/04/27 00:36:05;;;;;;;1.48;1.10;;;;;;;12.17;54.66;100962.19;5031118;28;20057;-48
2021/04/27 00:38:32;;;;;;;2.22;1.20;;;;;;;12.16;54.88;100960.56;5031918;28;20506;-48
2021/04/27 00:41:00;;;;;;;3.00;1.60;;;;;;;12.10;55.26;100954.44;5031607;28;20045;-47
2021/04/27 00:43:27;;;;;;;4.20;0.98;;;;;;;12.07;55.43;100957.13;5031586;28;20073;-48
2021/04/27 00:45:53;;;;;;;2.15;1.02;;;;;;;12.10;55.70;100959.19;5032170;28;20386;-46
2021/04/27 00:48:19;;;;;;;4.43;1.17;;;;;;;12.08;55.82;100955.94;5031568;28;20045;-46
2021/04/27 00:50:46;;;;;;;2.92;1.13;;;;;;;12.00;56.39;100945.78;5031662;28;20470;-46
2021/04/27 00:53:15;;;;;;;6.00;1.50;;;;;;;11.99;56.38;100944.97;5031721;28;20131;-46
2021/04/27 00:55:41;;;;;;;3.63;1.40;;;;;;;11.92;56.80;100950.31;5013342;28;20045;-47
2021/04/27 00:58:08;;;;;;;3.15;1.35;;;;;;;11.82;57.09;100936.94;5031456;28;20103;-45
2021/04/27 01:00:38;;;;;;;5.65;2.03;;;;;;;11.87;57.39;100933.09;5032232;28;20068;-48
2021/04/27 01:03:05;;;;;;;6.22;1.20;;;;;;;11.94;57.13;100930.56;5031117;28;20562;-49
2021/04/27 01:05:36;;;;;;;5.03;1.50;;;;;;;12.00;56.92;100931.91;5030752;28;20095;-47
2021/04/27 01:08:11;;;;;;;4.18;1.55;;;;;;;11.98;57.18;100928.69;5031068;28;20108;-46
2021/04/27 01:11:00;;;;;;;5.38;2.00;;;;;;;11.95;57.86;100926.63;5031614;28;20510;-47
2021/04/27 01:14:03;;;;;;;8.30;1.60;;;;;;;11.91;58.13;100929.28;5030872;28;20034;-46
2021/04/27 01:16:33;;;;;;;5.65;1.95;;;;;;;11.86;57.73;100915.63;5031016;28;20069;-45
2021/04/27 01:19:00;;;;;;;3.63;1.58;;;;;;;11.78;58.00;100913.81;5030550;28;20045;-48
2021/04/27 01:21:28;;;;;;;5.28;2.35;;;;;;;11.71;58.40;100907.22;5031754;28;20604;-47
2021/04/27 01:24:22;;;;;;;4.93;1.50;;;;;;;11.68;58.64;100896.78;5031208;28;20137;-51
2021/04/27 01:26:55;;;;;;;2.35;1.30;;;;;;;11.70;58.68;100905.63;5028455;28;20068;-46
2021/04/27 01:29:27;;;;;;;2.88;1.65;;;;;;;11.75;58.12;100908.16;5030653;28;20056;-47
2021/04/27 01:31:57;;;;;;;6.75;2.20;;;;;;;11.74;58.16;100901.00;5043693;28;20548;-50
2021/04/27 01:34:36;;;;;;;6.70;2.15;;;;;;;11.74;58.51;100895.44;5035094;28;20060;-46
2021/04/27 01:37:04;;;;;;;3.88;1.63;;;;;;;11.66;58.67;100897.16;5030609;28;20096;-47
2021/04/27 01:39:31;;;;;;;5.13;2.00;;;;;;;11.62;58.43;100893.47;5030981;28;20049;-48
2021/04/27 01:42:04;;;;;;;5.95;1.40;;;;;;;11.58;59.06;100887.81;5030511;28;20073;-46
2021/04/27 01:44:33;;;;;;;7.32;1.98;;;;;;;11.60;58.57;100881.91;5030750;28;20092;-46
2021/04/27 01:47:01;;;;;;;4.97;2.00;;;;;;;11.60;58.10;100888.25;5030309;28;20049;-50
2021/04/27 01:49:28;;;;;;;7.45;1.58;;;;;;;11.62;58.57;100879.63;5030860;28;20053;-46
2021/04/27 01:51:55;;;;;;;3.17;1.88;;;;;;;11.65;58.49;100875.34;5030816;28;20100;-46
2021/04/27 01:54:26;;;;;;;6.85;2.15;;;;;;;11.67;58.62;100873.81;5029495;28;20080;-47
2021/04/27 01:56:53;;;;;;;2.80;1.63;;;;;;;11.65;58.43;100872.56;5029048;28;20390;-47
2021/04/27 01:59:20;;;;;;;6.50;2.15;;;;;;;11.68;58.39;100874.59;5028943;28;20111;-47
2021/04/27 02:01:47;;;;;;;2.00;1.52;;;;;;;11.67;58.39;100867.47;5028645;28;20124;-48
2021/04/27 02:04:27;;;;;;;7.43;1.58;;;;;;;11.60;58.74;100857.75;5029939;28;20072;-50
2021/04/27 02:06:54;;;;;;;4.50;1.20;;;;;;;11.65;58.43;100855.91;5030785;28;20049;-49
2021/04/27 02:09:25;;;;;;;8.32;1.20;;;;;;;11.55;58.81;100852.47;5030955;28;20048;-46
2021/04/27 02:11:54;;;;;;;3.67;1.65;;;;;;;11.45;59.01;100846.59;5031006;28;20044;-47
2021/04/27 02:14:25;;;;;;;4.95;1.33;;;;;;;11.36;59.17;100826.47;5029228;28;20041;-47
2021/04/27 02:16:53;;;;;;;8.48;1.90;;;;;;;11.33;59.33;100808.59;5031315;28;20065;-46
2021/04/27 02:19:25;;;;;;;4.18;1.58;;;;;;;11.28;59.17;100811.59;5029816;28;20068;-49
2021/04/27 02:21:59;;;;;;;6.32;2.88;;;;;;;11.13;59.69;100814.28;5031220;28;20763;-46
2021/04/27 02:24:27;;;;;;;11.85;2.28;;;;;;;11.05;59.63;100817.97;5030268;28;20087;-50
2021/04/27 02:26:54;;;;;;;6.00;1.40;;;;;;;10.98;59.95;100811.06;5031821;28;20068;-47
2021/04/27 02:29:21;;;;;;;5.97;1.83;;;;;;;11.03;59.66;100804.47;5033920;28;20084;-48
2021/04/27 02:31:48;;;;;;;6.22;2.53;;;;;;;11.01;59.75;100806.78;5045578;28;20127;-48
2021/04/27 02:34:19;;;;;;;5.15;1.70;;;;;;;10.94;60.53;100803.78;5038952;28;20049;-48
2021/04/27 02:36:46;;;;;;;4.20;1.67;;;;;;;10.85;60.40;100792.81;5034374;28;20069;-51
2021/04/27 02:39:13;;;;;;;6.75;1.50;;;;;;;10.82;60.51;100796.28;5034295;28;20069;-49
2021/04/27 02:41:39;;;;;;;3.47;1.48;;;;;;;10.87;60.26;100789.69;5033822;28;20053;-46
2021/04/27 02:44:09;;;;;;;7.88;1.65;;;;;;;10.88;60.43;100792.09;5034183;28;20053;-48
2021/04/27 02:46:35;;;;;;;4.43;1.80;;;;;;;10.91;60.40;100801.69;5034036;28;20114;-49
2021/04/27 02:49:04;;;;;;;4.22;1.52;;;;;;;10.89;60.54;100807.59;5033707;28;20050;-46
2021/04/27 02:51:31;;;;;;;5.72;1.60;;;;;;;10.87;60.93;100795.25;5033673;28;20096;-48
2021/04/27 02:53:59;;;;;;;7.65;1.45;;;;;;;10.88;60.99;100797.66;5033306;28;20081;-47
2021/04/27 02:56:25;;;;;;;5.70;2.38;;;;;;;10.87;61.08;100789.69;5033526;28;20060;-47
2021/04/27 02:58:51;;;;;;;4.70;1.50;;;;;;;10.77;61.60;100795.69;5033625;28;20084;-48
2021/04/27 03:01:19;;;;;;;3.38;1.50;;;;;;;10.80;61.47;100790.25;5016577;28;20364;-46
2021/04/27 03:03:45;;;;;;;5.00;1.30;;;;;;;10.76;61.70;100796.84;5033709;28;20041;-46
2021/04/27 03:06:11;;;;;;;6.00;1.63;;;;;;;10.75;61.68;100784.94;5033996;28;20045;-47
2021/04/27 03:08:38;;;;;;;10.32;1.48;;;;;;;10.76;61.79;100780.22;5033705;28;20053;-45
2021/04/27 03:11:07;;;;;;;5.38;1.55;;;;;;;10.80;61.78;100781.16;5033501;28;20171;-46
2021/04/27 03:13:34;;;;;;;10.45;2.58;;;;;;;10.82;61.68;100787.16;5033285;28;20613;-49
2021/04/27 03:16:01;;;;;;;4.68;1.95;;;;;;;10.87;61.58;100784.16;5015907;28;20111;-46
2021/04/27 03:18:28;;;;;;;7.55;1.60;;;;;;;10.81;61.87;100768.91;5033427;28;20441;-48
2021/04/27 03:20:54;;;;;;;5.00;1.58;;;;;;;10.85;61.81;100780.94;5034115;28;20045;-50
2021/04/27 03:23:22;;;;;;;10.10;2.13;;;;;;;10.82;62.26;100776.09;5032720;28;20037;-47
2021/04/27 03:25:49;;;;;;;9.38;1.75;;;;;;;10.80;62.06;100768.09;5033580;28;20132;-46
2021/04/27 03:28:16;;;;;;;6.93;2.30;;;;;;;10.73;62.26;100767.06;5032884;28;20059;-45
2021/04/27 03:30:43;;;;;;;4.95;1.88;;;;;;;10.78;62.32;100758.53;5018218;28;20046;-48
2021/04/27 03:33:10;;;;;;;10.60;2.17;;;;;;;10.76;62.26;100755.31;5045168;28;20119;-46
2021/04/27 03:35:36;;;;;;;5.70;2.25;;;;;;;10.74;62.24;100746.53;5033000;28;20565;-46
2021/04/27 03:38:03;;;;;;;4.97;1.65;;;;;;;10.61;62.67;100753.22;5032565;28;20123;-45
2021/04/27 03:40:29;;;;;;;6.28;1.60;;;;;;;10.60;62.75;100752.41;5033071;28;20092;-48
2021/04/27 03:42:56;;;;;;;4.90;2.00;;;;;;;10.63;62.46;100756.44;5033238;28;20076;-46
2021/04/27 03:45:34;;;;;;;5.13;1.70;;;;;;;10.57;62.82;100743.97;5032362;28;20051;-47
2021/04/27 03:48:15;;;;;;;5.43;2.08;;;;;;;10.52;63.27;100741.44;5032900;28;20037;-47
2021/04/27 03:50:43;;;;;;;7.63;2.00;;;;;;;10.53;62.70;100738.34;5032857;28;20041;-47
2021/04/27 03:53:11;;;;;;;10.88;1.98;;;;;;;10.61;62.48;100739.38;5032352;28;20068;-45
2021/04/27 03:55:38;;;;;;;6.78;1.75;;;;;;;10.66;62.29;100739.16;5027686;28;20445;-50
2021/04/27 03:58:05;;;;;;;4.22;1.77;;;;;;;10.60;62.42;100740.53;5032866;28;20137;-46
2021/04/27 04:00:33;;;;;;;9.50;2.83;;;;;;;10.49;62.64;100733.81;5033094;28;20517;-50
2021/04/27 04:03:00;;;;;;;6.82;1.80;;;;;;;10.46;62.66;100723.47;5032482;28;20498;-49
2021/04/27 04:05:26;;;;;;;7.18;2.05;;;;;;;10.40;62.66;100737.50;5031716;28;20091;-49
2021/04/27 04:07:55;;;;;;;3.75;1.48;;;;;;;10.37;62.88;100731.88;5032515;28;20437;-49
2021/04/27 04:10:24;;;;;;;6.47;1.70;;;;;;;10.34;62.84;100727.84;5032265;28;20045;-48
2021/04/27 04:12:51;;;;;;;2.53;1.20;;;;;;;10.34;62.95;100727.84;5031714;28;20561;-48
2021/04/27 04:15:18;;;;;;;9.32;1.83;;;;;;;10.28;62.96;100720.91;5030835;28;20084;-49
2021/04/27 04:17:45;;;;;;;4.53;1.42;;;;;;;10.20;63.03;100732.06;5031805;28;20049;-45
2021/04/27 04:20:18;;;;;;;3.72;1.38;;;;;;;10.07;63.62;100722.09;5032173;28;20065;-49
2021/04/27 04:22:48;;;;;;;5.13;1.92;;;;;;;10.01;63.57;100721.50;5018213;28;20043;-46
2021/04/27 04:25:15;;;;;;;4.53;1.42;;;;;;;9.96;63.71;100718.94;5032311;28;20429;-51
2021/04/27 04:27:42;;;;;;;4.85;1.50;;;;;;;9.91;63.90;100727.47;5032056;28;20088;-45
2021/04/27 04:30:14;;;;;;;6.97;2.25;;;;;;;9.88;64.24;100716.25;5032301;28;20549;-48
2021/04/27 04:32:41;;;;;;;5.20;1.90;;;;;;;9.90;64.06;100712.00;5047253;28;20072;-49
2021/04/27 04:35:09;;;;;;;3.65;1.33;;;;;;;9.95;64.17;100716.53;5032034;28;20293;-48
2021/04/27 04:37:35;;;;;;;4.53;1.20;;;;;;;9.92;64.20;100709.72;5031552;28;20080;-51
2021/04/27 04:40:05;;;;;;;3.38;1.40;;;;;;;9.83;64.39;100711.78;5031988;28;20490;-50
2021/04/27 04:42:32;;;;;;;7.22;1.30;;;;;;;9.92;64.18;100693.13;5031948;28;20107;-50
2021/04/27 04:44:58;;;;;;;4.32;1.45;;;;;;;9.86;64.36;100700.03;5031419;28;20085;-49
2021/04/27 04:47:24;;;;;;;4.75;1.35;;;;;;;9.85;64.33;100701.16;5031243;28;20103;-46
2021/04/27 04:49:51;;;;;;;4.00;1.27;;;;;;;9.82;64.62;100701.88;5030223;28;20073;-45
2021/04/27 04:52:17;;;;;;;7.55;2.03;;;;;;;9.85;64.79;100703.94;5031273;28;20561;-49
2021/04/27 04:54:44;;;;;;;9.15;2.65;;;;;;;9.79;65.20;100700.56;5023947;28;20823;-52
2021/04/27 04:57:10;;;;;;;6.80;2.33;;;;;;;9.80;65.33;100709.69;5031050;28;20451;-46
2021/04/27 04:59:37;;;;;;;5.63;1.92;;;;;;;9.86;65.26;100705.56;5031682;28;20083;-48
2021/04/27 05:02:03;;;;;;;5.93;1.50;;;;;;;9.83;65.50;100703.47;5032026;28;20073;-49
2021/04/27 05:04:30;;;;;;;2.90;1.50;;;;;;;9.84;65.49;100710.63;5031364;28;20132;-47
2021/04/27 05:07:02;;;;;;;2.42;1.50;;;;;;;9.92;65.33;100706.97;5031692;28;20136;-49
2021/04/27 05:09:31;;;;;;;3.70;1.48;;;;;;;9.84;66.00;100704.28;5030768;28;20123;-50
2021/04/27 05:11:59;;;;;;;2.53;1.52;;;;;;;9.80;66.22;100706.91;5030844;28;20371;-46
2021/04/27 05:14:25;;;;;;;14.52;2.45;;;;;;;9.82;66.02;100697.13;5031086;28;20049;-46
2021/04/27 05:16:52;;;;;;;9.32;1.63;;;;;;;9.83;65.94;100695.19;5031395;28;20075;-46
2021/04/27 05:19:19;;;;;;;6.90;2.20;;;;;;;9.83;66.20;100703.47;5031184;28;20430;-47
2021/04/27 05:21:45;;;;;;;6.55;2.45;;;;;;;9.88;66.15;100697.72;5031408;28;20434;-51
2021/04/27 05:24:11;;;;;;;5.18;1.65;;;;;;;9.96;65.96;100701.53;5030853;28;20398;-47
2021/04/27 05:26:38;;;;;;;6.40;1.52;;;;;;;9.99;65.81;100698.09;5031745;28;20120;-50
2021/04/27 05:29:04;;;;;;;5.38;1.52;;;;;;;9.97;66.15;100701.22;5031135;28;20054;-46
2021/04/27 05:31:31;;;;;;;3.25;1.25;;;;;;;9.92;66.29;100706.16;5030905;28;20144;-46
2021/04/27 05:33:58;;;;;;;2.80;1.38;;;;;;;9.94;66.14;100696.38;5031084;28;20550;-51
2021/04/27 05:36:24;;;;;;;4.68;1.42;;;;;;;10.01;66.29;100696.59;5031132;28;20045;-47
2021/04/27 05:38:50;;;;;;;7.43;2.38;;;;;;;10.03;65.90;100693.50;5030654;28;20140;-46
2021/04/27 05:41:17;;;;;;;6.53;1.60;;;;;;;10.06;65.96;100692.84;5030802;28;20041;-49
2021/04/27 05:43:44;;;;;;;6.95;1.80;;;;;;;10.07;65.95;100699.97;5030596;28;20049;-47
2021/04/27 05:46:10;;;;;;;6.10;1.27;;;;;;;10.06;66.15;100699.16;5031396;28;20468;-50
2021/04/27 05:48:36;;;;;;;4.97;1.48;;;;;;;10.05;66.13;100700.31;5030793;28;20049;-50
2021/04/27 05:51:03;;;;;;;5.53;1.50;;;;;;;10.10;66.19;100699.28;5030626;28;20129;-47
2021/04/27 05:53:29;;;;;;;4.60;2.15;;;;;;;10.09;66.18;100681.88;5028281;28;20061;-52
2021/04/27 05:55:56;;;;;;;4.22;1.65;;;;;;;10.15;65.96;100686.06;5030634;28;20139;-48
2021/04/27 05:58:22;;;;;;;6.75;1.60;;;;;;;10.20;65.99;100677.53;5013763;28;20148;-48
2021/04/27 06:00:48;;;;;;;4.95;1.40;;;;;;;10.26;66.04;100683.66;5032005;28;20042;-50
2021/04/27 06:03:32;;;;;;;5.78;1.42;;;;;;;10.31;65.88;100677.91;5034907;28;20402;-46
2021/04/27 06:05:58;;;;;;;5.05;1.55;;;;;;;10.34;66.19;100678.03;5034884;28;20053;-49
2021/04/27 06:08:25;;;;;;;3.53;1.17;;;;;;;10.38;65.86;100676.16;5034310;28;20065;-47
2021/04/27 06:10:51;;;;;;;7.32;1.70;;;;;;;10.40;65.87;100673.06;5034794;28;20239;-49
2021/04/27 06:13:17;;;;;;;3.03;1.27;;;;;;;10.49;65.77;100676.50;5016612;28;20100;-45
2021/04/27 06:15:43;;;;;;;10.18;1.65;;;;;;;10.49;65.77;100672.94;5034401;28;20482;-46
2021/04/27 06:18:10;;;;;;;11.90;3.40;;;;;;;10.40;65.65;100673.84;5034230;28;20080;-49
2021/04/27 06:20:36;;;;;;;4.28;1.20;;;;;;;10.37;66.05;100674.56;5019976;28;20113;-47
2021/04/27 06:23:03;;;;;;;7.03;1.98;;;;;;;10.42;66.07;100664.41;5034447;28;20033;-50
2021/04/27 06:25:29;;;;;;;8.82;1.40;;;;;;;10.41;66.14;100660.81;5034632;28;20073;-47
2021/04/27 06:27:55;;;;;;;4.55;1.48;;;;;;;10.42;66.21;100665.22;5018412;28;20065;-50
2021/04/27 06:30:22;;;;;;;4.13;1.40;;;;;;;10.44;66.16;100665.66;4998250;28;20049;-46
2021/04/27 06:32:52;;;;;;;6.47;1.27;;;;;;;10.48;66.33;100671.34;5021871;28;20143;-46
2021/04/27 06:35:20;;;;;;;10.23;1.33;;;;;;;10.55;66.35;100666.00;5014034;28;20042;-50
2021/04/27 06:37:51;;;;;;;3.15;1.63;;;;;;;10.54;66.25;100664.41;5031858;28;20076;-47
2021/04/27 06:40:18;;;;;;;4.60;1.23;;;;;;;10.48;66.45;100654.72;5032306;28;20104;-46
2021/04/27 06:42:44;;;;;;;2.90;0.93;;;;;;;10.49;66.54;100672.94;5032415;28;20107;-48
2021/04/27 06:45:11;;;;;;;4.45;2.05;;;;;;;10.52;66.35;100658.41;5032889;28;20053;-46
2021/04/27 06:47:38;;;;;;;5.40;1.73;;;;;;;10.53;66.50;100660.03;5031521;28;20072;-46
2021/04/27 06:50:06;;;;;;;4.03;1.83;;;;;;;10.54;66.70;100656.91;5014175;28;20130;-47
2021/04/27 06:52:33;;;;;;;4.43;1.65;;;;;;;10.53;66.72;100660.03;5028670;28;20049;-49
2021/04/27 06:55:00;;;;;;;7.47;1.23;;;;;;;10.54;66.97;100656.13;5030219;28;20056;-48
2021/04/27 06:57:28;;;;;;;7.47;1.40;;;;;;;10.57;66.94;100656.22;5031658;28;20448;-47
2021/04/27 06:59:55;;;;;;;13.85;1.25;;;;;;;10.60;66.90;100654.72;5032242;28;20048;-49
2021/04/27 07:02:22;;;;;;;8.88;1.50;;;;;;;10.61;67.03;100657.16;5032643;28;20049;-51
2021/04/27 07:04:48;;;;;;;8.25;1.63;;;;;;;10.63;66.96;100646.53;5029341;28;20056;-47
2021/04/27 07:07:14;;;;;;;4.78;1.15;;;;;;;10.66;67.06;100629.22;5031350;28;20095;-47
2021/04/27 07:09:41;;;;;;;4.82;1.35;;;;;;;10.64;67.50;100648.16;5032178;28;20089;-46
2021/04/27 07:12:08;;;;;;;10.52;2.60;;;;;;;10.61;68.06;100634.19;5030200;28;20400;-46
2021/04/27 07:14:34;;;;;;;5.40;1.27;;;;;;;10.60;68.24;100635.31;5037118;28;20091;-48
2021/04/27 07:17:01;;;;;;;3.08;1.38;;;;;;;10.64;68.60;100633.50;5031839;28;20049;-46
2021/04/27 07:19:28;;;;;;;5.82;1.30;;;;;;;10.63;69.02;100635.44;5030667;28;20479;-49
2021/04/27 07:21:54;;;;;;;7.20;2.67;;;;;;;10.72;69.29;100633.34;5014390;28;20045;-47
2021/04/27 07:24:22;;;;;;;6.72;1.10;;;;;;;10.88;69.35;100625.16;5031415;28;20068;-48
2021/04/27 07:26:49;;;;;;;4.53;1.10;;;;;;;11.01;69.05;100618.41;5029544;28;20551;-47
2021/04/27 07:29:16;;;;;;;4.70;1.35;;;;;;;11.07;69.04;100614.22;5013738;28;20128;-47
2021/04/27 07:31:48;;;;;;;4.82;1.35;;;;;;;11.18;69.23;100617.28;5016804;28;20050;-48
2021/04/27 07:34:15;;;;;;;2.75;1.50;;;;;;;11.27;69.24;100613.22;5028992;28;20049;-47
2021/04/27 07:36:41;;;;;;;8.98;1.70;;;;;;;11.43;69.04;100613.28;5028405;28;20534;-48
2021/04/27 07:39:09;;;;;;;7.00;1.50;;;;;;;11.51;69.06;100610.34;5031755;28;20075;-47
2021/04/27 07:41:35;;;;;;;5.65;1.20;;;;;;;11.54;68.78;100615.16;5030321;28;20050;-47
2021/04/27 07:44:03;;;;;;;4.10;1.35;;;;;;;11.57;68.75;100608.09;5029304;28;20037;-45
2021/04/27 07:46:30;;;;;;;7.57;1.60;;;;;;;11.60;68.50;100608.19;5028090;28;20045;-48
2021/04/27 07:48:57;;;;;;;2.47;1.35;;;;;;;11.71;68.41;100602.16;5033014;28;20093;-51
2021/04/27 07:51:25;;;;;;;6.63;1.38;;;;;;;11.83;68.06;100600.13;5030111;28;20443;-50
2021/04/27 07:53:51;;;;;;;9.95;1.40;;;;;;;11.98;67.78;100599.31;5007959;28;20053;-47
2021/04/27 07:56:18;;;;;;;5.85;1.02;;;;;;;11.95;67.63;100597.25;5007341;28;20042;-46
2021/04/27 07:58:44;;;;;;;4.38;1.00;;;;;;;11.94;67.64;100594.84;5009323;28;20077;-46
2021/04/27 08:01:12;;;;;;;3.30;1.13;;;;;;;11.93;67.21;100594.03;5010058;28;20165;-44
2021/04/27 08:03:38;;;;;;;3.83;1.30;;;;;;;11.90;67.25;100599.50;5010096;28;20046;-45
2021/04/27 08:06:05;;;;;;;4.88;1.10;;;;;;;11.90;67.05;100596.72;5010377;28;20427;-45
2021/04/27 08:08:32;;;;;;;4.75;1.23;;;;;;;11.85;66.96;100585.88;5010599;28;20053;-46
2021/04/27 08:10:59;;;;;;;4.47;1.30;;;;;;;11.84;66.97;100589.81;5030755;28;20124;-50
2021/04/27 08:13:26;;;;;;;6.15;1.27;;;;;;;11.84;66.96;100584.28;5030272;28;20079;-47
2021/04/27 08:15:52;;;;;;;6.10;1.40;;;;;;;11.82;66.83;100583.81;5026298;28;20806;-45
2021/04/27 08:18:19;;;;;;;5.57;1.30;;;;;;;11.85;66.63;100585.88;5030468;28;20429;-46
2021/04/27 08:20:46;;;;;;;8.93;1.27;;;;;;;11.92;66.63;100586.06;5029617;28;20057;-44
2021/04/27 08:23:13;;;;;;;6.25;1.02;;;;;;;11.90;66.60;100589.22;5027777;28;20049;-46
2021/04/27 08:25:56;;;;;;;9.57;1.75;;;;;;;11.84;66.61;100585.09;5029483;28;20040;-46
2021/04/27 08:28:23;;;;;;;3.80;1.10;;;;;;;11.83;66.66;100579.91;4995660;28;20506;-49
2021/04/27 08:30:49;;;;;;;4.03;1.10;;;;;;;11.79;66.34;100581.75;5028842;28;20044;-46
2021/04/27 08:33:16;;;;;;;5.47;1.17;;;;;;;11.76;66.26;100579.69;5016854;28;20091;-47
2021/04/27 08:35:43;;;;;;;4.90;1.48;;;;;;;11.72;66.27;100574.09;5030188;28;20073;-47
2021/04/27 08:38:09;;;;;;;2.17;1.05;;;;;;;11.74;66.15;100568.97;5026112;28;20047;-46
2021/04/27 08:40:35;;;;;;;7.07;1.00;;;;;;;11.78;66.20;100580.94;5028957;28;20041;-48
2021/04/27 08:43:03;;;;;;;4.93;1.08;;;;;;;11.79;66.10;100573.44;5012180;28;20107;-47
2021/04/27 08:45:29;;;;;;;6.72;1.70;;;;;;;11.82;65.93;100572.72;5029432;28;20107;-45
2021/04/27 08:47:56;;;;;;;3.47;1.63;;;;;;;11.81;65.85;100571.16;5027107;28;20056;-47
2021/04/27 08:50:23;;;;;;;7.10;1.80;;;;;;;11.87;65.55;100572.47;5028512;28;20133;-45
2021/04/27 08:52:49;;;;;;;4.65;1.33;;;;;;;11.89;65.70;100559.84;5011364;28;20054;-45
2021/04/27 08:55:16;;;;;;;6.88;1.40;;;;;;;11.96;65.47;100575.88;5029305;28;20807;-46
2021/04/27 08:57:43;;;;;;;4.32;1.45;;;;;;;12.05;65.42;100568.16;5010243;28;20050;-49
2021/04/27 09:00:14;;;;;;;9.10;1.85;;;;;;;12.11;65.37;100561.19;5021678;28;20048;-47
2021/04/27 09:02:44;;;;;;;8.07;1.15;;;;;;;12.14;65.04;100564.03;5031505;28;20041;-46
2021/04/27 09:05:25;;;;;;;7.57;1.35;;;;;;;12.14;65.05;100563.25;5029589;28;20521;-45
2021/04/27 09:07:53;;;;;;;3.47;1.20;;;;;;;12.17;65.14;100570.84;5023532;28;20048;-45
2021/04/27 09:10:44;;;;;;;5.65;1.45;;;;;;;12.12;65.84;100557.25;5011775;28;20095;-45
2021/04/27 09:13:18;;;;;;;8.45;1.45;;;;;;;12.20;65.75;100556.25;5021669;28;20057;-46
2021/04/27 09:15:46;;;;;;;7.78;1.63;;;;;;;12.28;65.89;100549.69;5018715;28;20038;-47
2021/04/27 09:18:33;;;;;;;2.33;1.25;;;;;;;12.52;65.89;100554.22;5028489;28;20513;-46
2021/04/27 09:21:08;;;;;;;5.05;1.92;;;;;;;12.67;65.66;100554.16;5028355;28;20057;-48
2021/04/27 09:23:37;;;;;;;4.70;1.02;;;;;;;12.73;65.55;100547.13;5026153;28;20046;-46
2021/04/27 09:26:14;;;;;;;6.63;1.65;;;;;;;12.83;65.31;100552.13;5028290;28;20038;-46
2021/04/27 09:28:46;;;;;;;7.13;1.38;;;;;;;12.91;65.36;100555.03;5029136;28;20045;-43
2021/04/27 09:31:25;;;;;;;7.95;1.77;;;;;;;12.88;65.09;100551.03;5028338;28;20091;-46
2021/04/27 09:33:53;;;;;;;13.98;2.55;;;;;;;12.82;64.83;100550.50;5028565;28;20095;-47
2021/04/27 09:36:22;;;;;;;3.45;1.40;;;;;;;12.82;64.36;100546.91;5027268;28;20136;-45
2021/04/27 09:38:54;;;;;;;4.05;1.40;;;;;;;12.94;63.93;100544.00;5011306;28;20049;-45
2021/04/27 09:41:26;;;;;;;5.05;1.17;;;;;;;13.22;63.98;100533.47;5010922;28;20132;-44
2021/04/27 09:43:53;;;;;;;4.40;1.42;;;;;;;13.94;63.93;100539.94;5024388;28;20034;-43
2021/04/27 09:46:22;;;;;;;3.55;2.08;;;;;;;14.17;62.67;100533.53;5026068;28;20045;-45
2021/04/27 09:48:51;;;;;;;6.10;0.88;;;;;;;14.42;61.69;100531.94;5028688;28;20087;-46
2021/04/27 09:51:32;;;;;;;2.20;0.90;;;;;;;14.68;60.74;100526.34;5026527;28;20050;-43
2021/04/27 09:54:07;;;;;;;5.57;1.02;;;;;;;14.76;60.29;100535.59;5028596;28;20057;-45
2021/04/27 09:56:49;;;;;;;5.10;0.80;;;;;;;14.49;59.23;100529.25;5027927;28;20045;-44
2021/04/27 09:59:31;;;;;;;2.88;0.70;;;;;;;14.45;58.55;100525.63;5028360;28;20434;-43
2021/04/27 10:02:00;;;;;;;2.95;0.77;;;;;;;14.47;58.57;100526.06;5025423;28;20503;-47
2021/04/27 10:04:28;;;;;;;2.50;1.08;;;;;;;14.51;58.11;100515.75;5033462;28;20041;-47
2021/04/27 10:07:01;;;;;;;2.63;0.70;;;;;;;14.64;57.89;100515.13;5031416;28;20046;-49
2021/04/27 10:09:29;;;;;;;0.98;0.63;;;;;;;14.85;57.38;100514.59;5028565;28;20050;-44
2021/04/27 10:11:57;;;;;;;4.63;1.23;;;;;;;15.53;56.53;100513.41;5028937;28;20054;-50
2021/04/27 10:14:24;;;;;;;1.98;0.52;;;;;;;16.33;55.22;100512.44;5028040;28;20041;-44
2021/04/27 10:16:52;;;;;;;2.47;0.70;;;;;;;16.66;53.52;100511.44;5040546;28;20058;-45
2021/04/27 10:19:18;;;;;;;2.35;0.40;;;;;;;16.31;52.74;100503.63;5035534;28;20049;-47
2021/04/27 10:21:47;;;;;;;1.42;0.55;;;;;;;15.83;52.77;100503.69;5012643;28;20053;-44
2021/04/27 10:24:16;;;;;;;1.52;0.82;;;;;;;15.33;52.85;100500.81;5035749;28;20045;-44
2021/04/27 10:26:46;;;;;;;2.90;0.90;;;;;;;14.84;53.07;100499.09;5027980;28;20056;-48
2021/04/27 10:29:19;;;;;;;2.83;1.02;;;;;;;14.57;53.40;100503.09;5026394;28;20045;-49
2021/04/27 10:31:46;;;;;;;;;;;;;;;14.38;52.99;100500.44;5028371;28;20045;-45
2021/04/27 10:34:17;;;;;;;2.88;0.60;;;;;;;14.30;53.86;100496.72;5026981;28;19921;-46
2021/04/27 10:36:49;;;;;;;2.38;0.80;;;;;;;14.15;53.63;100502.47;5010220;28;20072;-45
2021/04/27 10:39:35;;;;;;;1.15;0.52;;;;;;;14.10;53.75;100495.25;5026618;28;20073;-44
2021/04/27 10:42:14;;;;;;;0.85;0.45;;;;;;;13.92;53.18;100499.75;5029180;28;20041;-45
2021/04/27 10:44:54;;;;;;;2.35;1.02;;;;;;;13.83;54.24;100508.34;5025767;28;20101;-45
2021/04/27 10:47:23;;;;;;;2.92;0.93;;;;;;;13.73;54.75;100505.38;5028377;28;20099;-45
2021/04/27 10:49:55;;;;;;;6.97;0.75;;;;;;;13.67;55.22;100499.34;5018549;28;20052;-45
2021/04/27 10:52:39;;;;;;;5.25;1.13;;;;;;;13.70;55.55;100508.91;5022748;28;20077;-44
2021/04/27 10:55:25;;;;;;;6.00;1.20;;;;;;;13.79;55.49;100501.91;5022156;28;20506;-44
2021/04/27 10:57:53;;;;;;;4.50;1.02;;;;;;;13.99;55.28;100495.09;5019551;28;20069;-43
2021/04/27 11:00:43;;;;;;;4.60;0.80;;;;;;;14.03;54.15;100495.16;5031057;28;20132;-44
2021/04/27 11:03:15;;;;;;;4.80;0.70;;;;;;;14.16;54.46;100498.53;5043109;28;20055;-44
2021/04/27 11:06:04;;;;;;;3.28;0.50;;;;;;;14.29;53.95;100492.34;5046582;28;20045;-46
2021/04/27 11:08:51;;;;;;;0.50;0.40;;;;;;;14.34;52.89;100499.59;5023004;28;20117;-45
2021/04/27 11:11:21;;;;;;;3.33;0.40;;;;;;;14.24;53.25;100494.66;5026153;28;20037;-47
2021/04/27 11:13:48;;;;;;;3.08;0.43;;;;;;;14.18;53.21;100496.16;5031499;28;20049;-43
2021/04/27 11:16:26;;;;;;;3.15;0.30;;;;;;;14.20;52.63;100494.59;5028208;28;20053;-45
2021/04/27 11:19:18;;;;;;;3.20;0.40;;;;;;;14.21;52.03;100489.84;5031122;28;20056;-44
2021/04/27 11:21:47;;;;;;;2.15;0.88;;;;;;;14.22;52.34;100491.44;5032026;28;20100;-45
2021/04/27 11:24:39;;;;;;;1.65;0.50;;;;;;;14.25;50.99;100479.53;5034722;28;20045;-45
2021/04/27 11:27:31;;;;;;;2.88;0.28;;;;;;;14.41;51.22;100477.41;5025672;28;20037;-47
2021/04/27 11:30:31;;;;;;;1.25;0.50;;;;;;;14.67;50.35;100480.13;5010410;28;20132;-51
2021/04/27 11:33:03;;;;;;;1.55;0.90;;;;;;;14.71;48.84;100471.84;5027663;28;20049;-45
2021/04/27 11:35:41;;;;;;;1.60;0.30;;;;;;;14.75;49.79;100475.44;5029791;28;20056;-49
2021/04/27 11:38:08;;;;;;;2.35;0.30;;;;;;;14.80;49.81;100478.72;5024097;28;20473;-46